Weather

SUNSHINE COAST  TAF / METAR

TAF YBSU 180510Z 1806/1818
13014KT CAVOK
FM181100 13010KT 9999 SCT035
FM181500 20008KT 9999 SCT035
RMK
T 28 25 25 23 Q 1008 1009 1010 1008

METAR YBSU 181000Z AUTO 12009KT 9999 // NCD 25/18 Q1010 RMK
RF00.0/000.0

DOQ Compas Heading

Area Briefing TAF / METAR for 40

* AMBERLEY YAMB

TAF YAMB 180507Z 1806/1824
07016KT CAVOK
FM181000 09008KT 9999 FEW040
FM181600 VRB03KT 9999 SCT025
FM182200 14008KT 9999 FEW035
PROB30 1816/1821 2000 BR FEW002
RMK
T 31 26 22 18 Q 1007 1009 1010 1009

TTF METAR YAMB 181000Z 07009KT 9999 FEW047 25/17 Q1010
RMK RF00.0/000.0
NOSIG
RMK USE TAF FOR ARRIVALS AFTER 1130Z

ARCHERFIELD YBAF

TAF YBAF 180514Z 1806/1818
08014KT CAVOK
FM181000 10008KT 9999 FEW030
FM181300 19006KT 9999 FEW030
RMK
T 30 25 24 22 Q 1008 1010 1011 1009

METAR YBAF 181000Z AUTO 07008KT 9999 // NCD 25/17 Q1011 RMK
RF00.0/000.0

* BRISBANE YBBN

TAF YBBN 180523Z 1806/1912
09012KT 9999 FEW040
FM180900 10008KT 9999 FEW030
FM181400 19005KT 9999 FEW025
FM182300 13010KT 9999 FEW040
FM190100 05012KT CAVOK
FM190900 09008KT 9999 FEW025
RMK
T 28 25 25 23 Q 1009 1010 1010 1009

TTF METAR YBBN 181000Z 09007KT 9999 FEW025 25/18 Q1010
RMK RF00.0/000.0
NOSIG

BUNDABERG YBUD

TAF YBUD 180522Z 1806/1818
10018KT CAVOK
FM180900 12012KT CAVOK
FM181200 18008KT 9999 FEW025
RMK
T 30 26 24 22 Q 1007 1008 1009 1008

METAR YBUD 181000Z AUTO 13010KT 9999 // NCD 25/18 Q1009 RMK
RF00.0/000.0

EMERALD YEML

TAF YEML 180524Z 1806/1818
18007KT CAVOK
FM181200 06008KT 9999 FEW018
RMK
T 37 34 31 27 Q 1005 1006 1007 1008

METAR YEML 181000Z AUTO 02005KT 9999 // NCD 33/14 Q1006
RMK RF00.0/000.0

GAYNDAH YGAY

Nil current TAF.

METAR YGAY 181000Z AUTO 10008KT //// // ////// 28/15 Q1008 RMK
RF00.0/000.0

GLADSTONE YGLA

TAF YGLA 180527Z 1806/1818
07012KT 9999 FEW040
FM181200 15006KT 9999 FEW020
RMK
T 30 27 26 25 Q 1006 1008 1009 1008

METAR YGLA 181000Z AUTO 10009KT 9999 // NCD 27/19 Q1009 RMK
RF00.0/000.0

GOLD COAST YBCG

TAF YBCG 180523Z 1806/1906
10014KT 9999 FEW045
FM180900 11008KT 9999 SCT030
FM181200 20005KT 9999 SCT030
FM182300 14010KT 9999 SCT040
FM190000 05010KT 9999 FEW040
RMK
T 28 25 24 22 Q 1009 1010 1011 1009

METAR YBCG 181000Z AUTO 11006KT 9999 // SCT028 25/19 Q1011 RMK
RF00.0/000.0

GOONDIWINDI YGDI

Nil current TAF.

METAR/SPECI observations are not generated for this location.

HERVEY BAY YHBA

TAF YHBA 180522Z 1806/1818
13016KT CAVOK
FM180900 14012KT CAVOK
FM181400 18008KT 9999 FEW025
RMK
T 29 26 25 24 Q 1007 1009 1009 1008

METAR YHBA 181000Z AUTO 14007KT 9999 // NCD 25/18 Q1009 RMK
RF00.0/000.0

KINGAROY YKRY

TAF YKRY 171820Z 1720/1808
15006KT 9999 SCT015
FM172300 12010KT CAVOK
RMK
T 16 24 29 32 Q 1013 1014 1012 1009

METAR YKRY 181000Z AUTO 09009KT 9999 // NCD 25/14 Q1011 RMK
RF00.0/000.0

MARYBOROUGH YMYB

TAF AMD YMYB 180630Z 1806/1814
12016KT CAVOK
FM180900 14009KT CAVOK
FM181200 18007KT 9999 FEW030
RMK
T 30 25 22 Q 1007 1009 1010

METAR YMYB 181000Z AUTO 13006KT 9999 // NCD 22/17 Q1010
RMK RF00.0/000.0

* OAKEY YBOK

TAF YBOK 172337Z 1800/1814
10012KT 9999 FEW040
FM180900 08013KT CAVOK
FM181300 07011KT 9999 FEW025
RMK
T 27 34 35 28 Q 1013 1010 1008 1010

TTF METAR YBOK 181000Z 07017KT CAVOK 26/16 Q1011
RMK RF00.0/000.0
NOSIG

ROCKHAMPTON YBRK

TAF AMD YBRK 180610Z 1806/1906
08009KT CAVOK
FM181400 17006KT 9999 FEW020
FM190000 16008KT CAVOK
RMK
T 34 27 26 24 Q 1005 1007 1009 1008

METAR YBRK 181000Z AUTO 10007KT 9999 // NCD 27/19 Q1008 RMK
RF00.0/000.0

ROMA YROM

TAF YROM 180733Z 1808/1820
14010KT CAVOK
FM181300 03005KT CAVOK
FM181600 02014KT CAVOK
RMK
T 36 29 27 25 Q 1007 1008 1008 1008

METAR YROM 181000Z AUTO 09005KT 9999 // NCD 29/04 Q1008 RMK
RF00.0/000.0

ST GEORGE YSGE

TAF YSGE 180129Z 1802/1811
01013KT CAVOK
FM180500 11006KT CAVOK
RMK
T 34 37 37 30 Q 1009 1006 1006 1007

METAR YSGE 181000Z AUTO 00000KT 9999 // NCD 31/02 Q1007 RMK
RF00.0/000.0

SUNSHINE COAST YBSU

TAF YBSU 180510Z 1806/1818
13014KT CAVOK
FM181100 13010KT 9999 SCT035
FM181500 20008KT 9999 SCT035
RMK
T 28 25 25 23 Q 1008 1009 1010 1008

METAR YBSU 181000Z AUTO 12009KT 9999 // NCD 25/18 Q1010 RMK
RF00.0/000.0

THANGOOL YTNG

TAF YTNG 180048Z 1802/1814
14010KT CAVOK
RMK
T 32 36 34 27 Q 1010 1006 1007 1009

METAR YTNG 181000Z AUTO 04010KT 9999 // NCD 28/15 Q1008
RMK RF00.0/000.0

TOOWOOMBA YTWB

TAF YTWB 180731Z 1808/1820
09014KT CAVOK
FM180900 09018KT 9999 FEW015
FM181600 09013KT 9999 FEW015
RMK
T 27 21 19 18 Q 1011 1013 1013 1011

METAR YTWB 181000Z AUTO 10017KT 9999 // NCD 23/15 Q1013 RMK
RF00.0/000.0

WELLCAMP (BRISBANE WEST) YBWW

TAF YBWW 180039Z 1802/1814
09013KT CAVOK
FM180900 09017KT CAVOK
RMK
T 30 33 31 24 Q 1011 1009 1009 1011

METAR YBWW 181000Z AUTO 09018KT //// // NCD 26/17 Q1010 RMK
RF00.0/000.0

* Note: The latest TTF automatically supersedes the TAF for the 3 hr validity of the TTF, unless otherwise specified in the TTF.

DOQLD Area Briefing Map


Whole of Australia